createdAt,value
2023-01-20T00:01:10.242Z,13.07
2023-01-20T00:03:37.259Z,14.55
2023-01-20T00:06:04.568Z,13.68
2023-01-20T00:08:31.409Z,13.88
2023-01-20T00:10:58.244Z,12.75
2023-01-20T00:13:25.004Z,13.60
2023-01-20T00:15:51.774Z,13.68
2023-01-20T00:18:18.558Z,14.48
2023-01-20T00:20:45.318Z,13.23
2023-01-20T00:23:12.165Z,13.25
2023-01-20T00:25:39.061Z,13.90
2023-01-20T00:28:06.189Z,14.23
2023-01-20T00:30:32.976Z,14.73
2023-01-20T00:32:59.724Z,13.55
2023-01-20T00:35:26.404Z,14.43
2023-01-20T00:37:53.244Z,13.70
2023-01-20T00:40:19.931Z,13.73
2023-01-20T00:42:46.779Z,13.10
2023-01-20T00:45:13.765Z,14.45
2023-01-20T00:47:40.699Z,14.63
2023-01-20T00:50:07.968Z,13.55
2023-01-20T00:52:34.783Z,13.68
2023-01-20T00:55:01.462Z,14.52
2023-01-20T00:57:28.268Z,14.93
2023-01-20T00:59:54.949Z,13.65
2023-01-20T01:02:21.833Z,14.68
2023-01-20T01:04:51.750Z,15.68
2023-01-20T01:07:18.806Z,13.75
2023-01-20T01:09:45.571Z,15.15
2023-01-20T01:12:12.389Z,14.25
2023-01-20T01:14:39.212Z,13.18
2023-01-20T01:17:06.007Z,13.55
2023-01-20T01:19:32.700Z,14.85
2023-01-20T01:21:59.430Z,13.65
2023-01-20T01:24:26.115Z,14.80
2023-01-20T01:26:53.859Z,13.98
2023-01-20T01:29:20.903Z,14.25
2023-01-20T01:31:47.681Z,13.45
2023-01-20T01:34:15.367Z,13.88
2023-01-20T01:36:42.353Z,12.90
2023-01-20T01:39:09.068Z,13.35
2023-01-20T01:41:36.070Z,12.95
2023-01-20T01:44:13.771Z,13.02
2023-01-20T01:46:41.377Z,11.88
2023-01-20T01:49:21.406Z,12.93
2023-01-20T01:52:04.657Z,12.50
2023-01-20T01:54:33.829Z,11.88
2023-01-20T01:57:00.968Z,12.15
2023-01-20T01:59:27.963Z,12.15
2023-01-20T02:01:55.334Z,12.45
2023-01-20T02:04:26.728Z,12.55
2023-01-20T02:07:00.325Z,12.48
2023-01-20T02:09:27.639Z,11.52
2023-01-20T02:11:57.048Z,10.93
2023-01-20T02:14:33.637Z,11.70
2023-01-20T02:17:03.075Z,12.23
2023-01-20T02:19:36.015Z,12.70
2023-01-20T02:22:31.424Z,11.48
2023-01-20T02:25:10.345Z,10.95
2023-01-20T02:27:48.023Z,11.77
2023-01-20T02:30:22.003Z,11.27
2023-01-20T02:32:59.281Z,10.40
2023-01-20T02:35:52.408Z,10.05
2023-01-20T02:38:28.985Z,10.75
2023-01-20T02:41:05.746Z,10.98
2023-01-20T02:43:48.780Z,11.20
2023-01-20T02:46:38.588Z,10.68
2023-01-20T02:49:26.607Z,9.70
2023-01-20T02:51:58.711Z,10.07
2023-01-20T02:54:27.925Z,10.70
2023-01-20T02:56:55.489Z,10.90
2023-01-20T02:59:24.968Z,11.20
2023-01-20T03:01:58.679Z,11.00
2023-01-20T03:04:29.837Z,10.90
2023-01-20T03:06:58.666Z,10.95
2023-01-20T03:09:31.625Z,10.60
2023-01-20T03:12:02.032Z,11.07
2023-01-20T03:14:29.201Z,11.13
2023-01-20T03:16:56.197Z,11.32
2023-01-20T03:19:23.043Z,10.95
2023-01-20T03:21:49.798Z,12.00
2023-01-20T03:24:16.752Z,11.50
2023-01-20T03:26:43.491Z,10.98
2023-01-20T03:29:15.284Z,11.75
2023-01-20T03:31:46.388Z,10.55
2023-01-20T03:34:16.306Z,11.45
2023-01-20T03:36:43.889Z,11.50
2023-01-20T03:39:10.881Z,12.20
2023-01-20T03:41:56.178Z,11.55
2023-01-20T03:44:41.681Z,12.13
2023-01-20T03:47:11.574Z,11.88
2023-01-20T03:49:57.069Z,11.88
2023-01-20T03:52:48.015Z,10.95
2023-01-20T03:55:50.813Z,10.52
2023-01-20T03:58:26.347Z,11.07
2023-01-20T04:00:53.412Z,10.80
2023-01-20T04:03:23.078Z,11.98
2023-01-20T04:05:50.151Z,12.05
2023-01-20T04:08:18.167Z,11.55
2023-01-20T04:10:47.256Z,12.95
2023-01-20T04:13:14.793Z,11.73
2023-01-20T04:15:44.631Z,11.32
2023-01-20T04:18:23.233Z,11.75
2023-01-20T04:20:53.606Z,12.00
2023-01-20T04:23:20.410Z,11.98
2023-01-20T04:25:47.168Z,12.55
2023-01-20T04:28:13.924Z,12.05
2023-01-20T04:30:40.955Z,12.05
2023-01-20T04:33:08.006Z,12.48
2023-01-20T04:35:34.679Z,11.95
2023-01-20T04:38:01.688Z,12.32
2023-01-20T04:40:28.418Z,12.32
2023-01-20T04:42:55.349Z,12.18
2023-01-20T04:45:22.201Z,11.98
2023-01-20T04:47:48.959Z,13.23
2023-01-20T04:50:16.470Z,13.40
2023-01-20T04:52:43.448Z,13.45
2023-01-20T04:55:11.331Z,12.27
2023-01-20T04:57:38.397Z,12.88
2023-01-20T05:00:06.910Z,12.48
2023-01-20T05:02:33.898Z,12.23
2023-01-20T05:05:00.719Z,13.15
2023-01-20T05:07:27.520Z,14.13
2023-01-20T05:09:54.394Z,12.48
2023-01-20T05:12:21.246Z,12.88
2023-01-20T05:14:48.002Z,12.98
2023-01-20T05:17:14.753Z,12.43
2023-01-20T05:19:43.607Z,12.35
2023-01-20T05:22:10.683Z,11.90
2023-01-20T05:24:37.528Z,12.25
2023-01-20T05:27:04.379Z,12.25
2023-01-20T05:29:31.153Z,13.57
2023-01-20T05:31:57.979Z,12.27
2023-01-20T05:34:24.804Z,12.82
2023-01-20T05:36:53.518Z,12.32
2023-01-20T05:39:21.033Z,12.43
2023-01-20T05:41:47.975Z,11.95
2023-01-20T05:44:16.028Z,13.05
2023-01-20T05:46:43.031Z,12.60
2023-01-20T05:49:12.524Z,11.30
2023-01-20T05:51:39.825Z,11.82
2023-01-20T05:54:06.800Z,12.80
2023-01-20T05:56:33.599Z,13.27
2023-01-20T05:59:00.427Z,11.90
2023-01-20T06:01:27.402Z,13.27
2023-01-20T06:03:54.319Z,13.30
2023-01-20T06:06:21.147Z,12.82
2023-01-20T06:08:49.635Z,13.10
2023-01-20T06:11:17.990Z,11.75
2023-01-20T06:13:48.112Z,12.90
2023-01-20T06:16:15.284Z,12.85
2023-01-20T06:18:42.122Z,12.57
2023-01-20T06:21:09.266Z,12.57
2023-01-20T06:23:36.264Z,12.85
2023-01-20T06:26:05.723Z,14.05
2023-01-20T06:28:35.994Z,13.90
2023-01-20T06:31:14.286Z,12.70
2023-01-20T06:33:41.779Z,14.05
2023-01-20T06:36:09.070Z,12.93
2023-01-20T06:38:36.205Z,14.70
2023-01-20T06:41:05.811Z,14.38
2023-01-20T06:43:34.152Z,14.60
2023-01-20T06:46:06.734Z,14.75
2023-01-20T06:48:33.661Z,14.98
2023-01-20T06:51:05.866Z,15.65
2023-01-20T06:53:32.855Z,14.27
2023-01-20T06:56:00.862Z,16.05
2023-01-20T06:58:29.731Z,15.77
2023-01-20T07:00:57.338Z,16.42
2023-01-20T07:03:24.594Z,15.07
2023-01-20T07:06:14.838Z,14.57
2023-01-20T07:08:43.467Z,15.45
2023-01-20T07:11:10.219Z,15.07
2023-01-20T07:13:37.013Z,14.07
2023-01-20T07:16:03.984Z,13.00
2023-01-20T07:18:30.804Z,12.77
2023-01-20T07:20:57.797Z,13.75
2023-01-20T07:23:24.712Z,14.38
2023-01-20T07:26:02.073Z,14.77
2023-01-20T07:28:30.665Z,13.20
2023-01-20T07:31:03.733Z,14.18
2023-01-20T07:33:31.232Z,12.65
2023-01-20T07:35:58.029Z,13.98
2023-01-20T07:38:25.812Z,13.90
2023-01-20T07:40:52.640Z,13.07
2023-01-20T07:43:19.542Z,14.88
2023-01-20T07:45:46.467Z,12.90
2023-01-20T07:48:13.380Z,14.18
2023-01-20T07:50:40.208Z,14.23
2023-01-20T07:53:07.187Z,13.25
2023-01-20T07:55:34.315Z,13.63
2023-01-20T07:58:02.232Z,13.10
2023-01-20T08:00:29.100Z,14.07
2023-01-20T08:02:56.029Z,14.13
2023-01-20T08:05:22.906Z,14.05
2023-01-20T08:07:53.024Z,14.35
2023-01-20T08:10:19.886Z,14.13
2023-01-20T08:12:46.628Z,13.43
2023-01-20T08:15:14.152Z,13.85
2023-01-20T08:17:41.161Z,14.10
2023-01-20T08:20:08.944Z,14.18
2023-01-20T08:22:36.060Z,13.27
2023-01-20T08:25:02.843Z,14.15
2023-01-20T08:27:29.836Z,12.95
2023-01-20T08:29:56.645Z,12.30
2023-01-20T08:32:24.029Z,13.38
2023-01-20T08:34:51.002Z,13.38
2023-01-20T08:37:17.917Z,12.82
2023-01-20T08:39:45.110Z,12.27
2023-01-20T08:42:12.630Z,13.65
2023-01-20T08:44:39.630Z,12.95
2023-01-20T08:47:10.231Z,13.45
2023-01-20T08:49:37.043Z,12.85
2023-01-20T08:52:04.139Z,13.35
2023-01-20T08:54:34.579Z,12.48
2023-01-20T08:57:01.773Z,12.98
2023-01-20T08:59:29.056Z,12.75
2023-01-20T09:01:56.022Z,12.13
2023-01-20T09:04:23.144Z,10.98
2023-01-20T09:06:54.240Z,12.00
2023-01-20T09:09:22.955Z,12.63
2023-01-20T09:11:52.487Z,12.88
2023-01-20T09:14:25.023Z,12.00
2023-01-20T09:16:52.450Z,10.77
2023-01-20T09:19:19.426Z,11.27
2023-01-20T09:21:46.142Z,11.25
2023-01-20T09:24:13.132Z,11.10
2023-01-20T09:26:48.075Z,10.88
2023-01-20T09:29:16.539Z,11.05
2023-01-20T09:31:45.210Z,11.57
2023-01-20T09:34:19.310Z,11.43
2023-01-20T09:37:19.148Z,11.70
2023-01-20T09:40:33.409Z,10.77
2023-01-20T09:43:22.079Z,11.35
2023-01-20T09:45:58.071Z,10.73
2023-01-20T09:48:43.744Z,11.48
2023-01-20T09:51:38.355Z,11.07
2023-01-20T09:54:18.689Z,11.05
2023-01-20T09:56:48.561Z,9.60
2023-01-20T09:59:23.469Z,9.80
2023-01-20T10:01:54.723Z,9.32
2023-01-20T10:04:25.517Z,9.18
2023-01-20T10:07:06.932Z,9.73
2023-01-20T10:09:45.091Z,9.40
2023-01-20T10:12:18.479Z,10.05
2023-01-20T10:14:50.903Z,9.25
2023-01-20T10:17:29.444Z,9.07
2023-01-20T10:20:03.933Z,9.65
2023-01-20T10:22:37.891Z,8.93
2023-01-20T10:25:12.812Z,10.30
2023-01-20T10:27:45.432Z,9.73
2023-01-20T10:30:14.698Z,9.60
2023-01-20T10:32:47.791Z,9.07
2023-01-20T10:35:21.381Z,9.85
2023-01-20T10:37:48.250Z,8.38
2023-01-20T10:40:19.980Z,8.43
2023-01-20T10:42:49.424Z,8.40
2023-01-20T10:45:21.178Z,8.57
2023-01-20T10:47:57.544Z,8.38
2023-01-20T10:50:50.789Z,8.50
2023-01-20T10:53:35.707Z,7.68
2023-01-20T10:56:23.087Z,8.07
2023-01-20T10:58:49.991Z,7.85
2023-01-20T11:01:19.000Z,7.75
2023-01-20T11:03:47.731Z,7.75
2023-01-20T11:06:20.624Z,7.50
2023-01-20T11:08:48.371Z,7.90
2023-01-20T11:11:21.513Z,7.45
2023-01-20T11:13:51.585Z,8.88
2023-01-20T11:16:31.511Z,7.40
2023-01-20T11:19:03.729Z,7.82
2023-01-20T11:21:33.616Z,8.10
2023-01-20T11:24:00.845Z,7.40
2023-01-20T11:26:30.155Z,6.60
2023-01-20T11:29:09.064Z,6.97
2023-01-20T11:31:41.711Z,6.40
2023-01-20T11:34:35.654Z,6.43
2023-01-20T11:37:05.543Z,6.50
2023-01-20T11:39:56.013Z,6.28
2023-01-20T11:42:28.847Z,6.15
2023-01-20T11:45:15.357Z,5.95
2023-01-20T11:47:45.287Z,5.85
2023-01-20T11:50:43.597Z,5.95
2023-01-20T11:53:21.133Z,6.23
2023-01-20T11:56:03.477Z,5.80
2023-01-20T11:58:47.096Z,5.60
2023-01-20T12:01:22.798Z,5.50
2023-01-20T12:04:23.668Z,6.10
2023-01-20T12:06:54.501Z,6.18
2023-01-20T12:09:26.224Z,5.65
2023-01-20T12:12:05.959Z,6.00
2023-01-20T12:14:38.259Z,6.60
2023-01-20T12:17:33.825Z,6.65
2023-01-20T12:20:09.843Z,6.17
2023-01-20T12:23:06.346Z,6.30
2023-01-20T12:25:44.433Z,5.47
2023-01-20T12:28:23.564Z,5.67
2023-01-20T12:31:05.275Z,6.87
2023-01-20T12:33:44.506Z,5.80
2023-01-20T12:36:33.189Z,5.13
2023-01-20T12:39:25.046Z,6.43
2023-01-20T12:42:30.980Z,6.07
2023-01-20T12:45:21.720Z,5.23
2023-01-20T12:48:03.869Z,4.70
2023-01-20T12:50:51.972Z,4.35
2023-01-20T12:53:31.139Z,4.65
2023-01-20T12:56:03.838Z,4.50
2023-01-20T12:58:33.681Z,5.40
2023-01-20T13:01:28.939Z,4.50
2023-01-20T13:04:08.807Z,5.00
2023-01-20T13:06:42.822Z,4.67
2023-01-20T13:09:35.981Z,4.17
2023-01-20T13:12:31.757Z,4.27
2023-01-20T13:15:21.755Z,4.47
2023-01-20T13:18:03.818Z,4.83
2023-01-20T13:20:30.952Z,4.17
2023-01-20T13:23:01.084Z,4.60
2023-01-20T13:25:28.613Z,4.27
2023-01-20T13:27:55.630Z,3.77
2023-01-20T13:30:39.989Z,4.60
2023-01-20T13:33:16.567Z,4.60
2023-01-20T13:35:48.976Z,4.10
2023-01-20T13:38:21.234Z,4.73
2023-01-20T13:40:50.595Z,5.20
2023-01-20T13:43:26.748Z,4.30
2023-01-20T13:46:02.818Z,4.43
2023-01-20T13:48:31.168Z,4.20
2023-01-20T13:51:16.880Z,5.83
2023-01-20T13:53:43.708Z,5.20
2023-01-20T13:56:27.700Z,4.57
2023-01-20T13:58:55.584Z,5.03
2023-01-20T14:01:22.412Z,4.40
2023-01-20T14:04:16.544Z,4.90
2023-01-20T14:06:51.121Z,5.18
2023-01-20T14:09:20.294Z,4.97
2023-01-20T14:12:05.649Z,5.40
2023-01-20T14:14:54.476Z,5.67
2023-01-20T14:17:24.793Z,5.53
2023-01-20T14:19:55.628Z,5.03
2023-01-20T14:22:31.660Z,4.80
2023-01-20T14:25:00.657Z,4.57
2023-01-20T14:27:32.261Z,5.97
2023-01-20T14:30:22.792Z,4.40
2023-01-20T14:32:50.423Z,5.63
2023-01-20T14:35:28.213Z,4.43
2023-01-20T14:37:55.455Z,4.30
2023-01-20T14:40:42.956Z,4.50
2023-01-20T14:43:21.808Z,3.90
2023-01-20T14:45:51.542Z,4.00
2023-01-20T14:48:33.010Z,4.60
2023-01-20T14:51:02.795Z,4.10
2023-01-20T14:53:29.645Z,3.30
2023-01-20T14:56:00.459Z,3.73
2023-01-20T14:58:30.660Z,3.37
2023-01-20T15:01:03.697Z,3.57
2023-01-20T15:03:31.136Z,3.30
2023-01-20T15:06:14.896Z,3.40
2023-01-20T15:08:42.957Z,2.90
2023-01-20T15:11:20.596Z,3.50
2023-01-20T15:13:53.746Z,4.00
2023-01-20T15:16:26.397Z,4.03
2023-01-20T15:19:17.550Z,4.23
2023-01-20T15:21:58.422Z,4.20
2023-01-20T15:24:31.679Z,5.10
2023-01-20T15:27:00.704Z,4.30
2023-01-20T15:29:33.324Z,4.00
2023-01-20T15:32:02.321Z,3.93
2023-01-20T15:34:29.834Z,3.70
2023-01-20T15:36:56.746Z,3.50
2023-01-20T15:39:30.294Z,3.00
2023-01-20T15:42:30.281Z,2.83
2023-01-20T15:44:57.671Z,1.83
2023-01-20T15:47:31.218Z,1.87
2023-01-20T15:49:58.454Z,2.67
2023-01-20T15:52:25.279Z,2.43
2023-01-20T15:54:54.467Z,2.20
2023-01-20T15:57:26.072Z,2.40
2023-01-20T15:59:52.840Z,2.20
2023-01-20T16:02:21.698Z,2.37
2023-01-20T16:04:48.603Z,2.27
2023-01-20T16:07:17.763Z,2.37
2023-01-20T16:09:46.219Z,2.80
2023-01-20T16:12:14.681Z,2.70
2023-01-20T16:14:42.377Z,4.00
2023-01-20T16:17:21.298Z,3.72
2023-01-20T16:19:49.323Z,3.50
2023-01-20T16:22:16.627Z,3.33
2023-01-20T16:24:44.120Z,3.90
2023-01-20T16:27:17.654Z,3.25
2023-01-20T16:29:44.985Z,3.30
2023-01-20T16:32:12.617Z,3.22
2023-01-20T16:34:39.992Z,3.10
2023-01-20T16:37:06.794Z,2.60
2023-01-20T16:39:34.200Z,2.58
2023-01-20T16:42:00.900Z,2.20
2023-01-20T16:44:27.600Z,2.47
2023-01-20T16:46:54.355Z,2.40
2023-01-20T16:49:22.751Z,2.30
2023-01-20T16:51:49.772Z,2.40
2023-01-20T16:54:16.638Z,2.75
2023-01-20T16:56:43.488Z,2.55
2023-01-20T16:59:10.255Z,2.63
2023-01-20T17:01:37.084Z,2.90
2023-01-20T17:04:05.016Z,2.60
2023-01-20T17:06:33.999Z,3.30
2023-01-20T17:09:03.974Z,3.30
2023-01-20T17:11:35.998Z,3.20
2023-01-20T17:14:05.490Z,2.63
2023-01-20T17:16:32.747Z,2.47
2023-01-20T17:19:00.758Z,2.55
2023-01-20T17:21:29.670Z,3.42
2023-01-20T17:24:01.648Z,3.10
2023-01-20T17:26:31.576Z,3.40
2023-01-20T17:29:06.270Z,2.92
2023-01-20T17:31:38.992Z,2.92
2023-01-20T17:34:09.735Z,2.58
2023-01-20T17:36:39.946Z,3.30
2023-01-20T17:39:20.379Z,3.10
2023-01-20T17:41:51.799Z,3.30
2023-01-20T17:44:19.923Z,2.78
2023-01-20T17:46:49.030Z,2.75
2023-01-20T17:49:16.426Z,3.20
2023-01-20T17:51:44.395Z,3.00
2023-01-20T17:54:11.449Z,2.58
2023-01-20T17:56:38.590Z,3.88
2023-01-20T17:59:05.882Z,3.00
2023-01-20T18:01:33.341Z,2.90
2023-01-20T18:04:00.976Z,3.33
2023-01-20T18:06:28.744Z,3.33
2023-01-20T18:08:58.092Z,3.75
2023-01-20T18:11:27.188Z,3.95
2023-01-20T18:13:55.602Z,3.65
2023-01-20T18:16:28.648Z,3.65
2023-01-20T18:18:58.897Z,3.78
2023-01-20T18:21:29.867Z,4.30
2023-01-20T18:23:58.847Z,4.63
2023-01-20T18:26:29.542Z,4.70
2023-01-20T18:28:57.623Z,4.28
2023-01-20T18:31:26.119Z,4.20
2023-01-20T18:33:58.706Z,3.95
2023-01-20T18:36:28.728Z,4.30
2023-01-20T18:39:02.821Z,3.90
2023-01-20T18:41:36.473Z,4.35
2023-01-20T18:44:07.362Z,4.78
2023-01-20T18:46:36.401Z,4.20
2023-01-20T18:49:03.501Z,4.07
2023-01-20T18:51:54.178Z,3.88
2023-01-20T18:54:26.099Z,4.00
2023-01-20T18:56:53.072Z,4.50
2023-01-20T18:59:27.408Z,4.28
2023-01-20T19:01:56.354Z,4.40
2023-01-20T19:04:23.313Z,4.43
2023-01-20T19:06:50.819Z,5.35
2023-01-20T19:09:19.729Z,5.95
2023-01-20T19:11:46.771Z,6.80
2023-01-20T19:14:15.286Z,7.68
2023-01-20T19:16:45.426Z,7.90
2023-01-20T19:19:13.043Z,8.45
2023-01-20T19:21:39.960Z,8.15
2023-01-20T19:24:08.152Z,9.23
2023-01-20T19:26:37.534Z,11.05
2023-01-20T19:29:10.921Z,10.65
2023-01-20T19:31:39.961Z,10.63
2023-01-20T19:34:07.701Z,11.65
2023-01-20T19:36:41.383Z,12.90
2023-01-20T19:39:10.278Z,12.15
2023-01-20T19:41:39.047Z,12.82
2023-01-20T19:44:06.906Z,14.10
2023-01-20T19:46:35.883Z,13.40
2023-01-20T19:49:05.426Z,12.38
2023-01-20T19:51:32.715Z,13.07
2023-01-20T19:54:01.781Z,13.23
2023-01-20T19:56:31.627Z,12.68
2023-01-20T19:59:02.959Z,12.85
2023-01-20T20:01:32.176Z,12.32
2023-01-20T20:03:59.727Z,12.43
2023-01-20T20:06:31.792Z,12.57
2023-01-20T20:09:00.972Z,10.05
2023-01-20T20:11:31.927Z,8.65
2023-01-20T20:14:05.989Z,9.00
2023-01-20T20:16:35.196Z,8.93
2023-01-20T20:19:02.917Z,7.82
2023-01-20T20:21:29.861Z,9.18
2023-01-20T20:23:58.769Z,8.77
2023-01-20T20:26:31.038Z,8.82
2023-01-20T20:29:02.529Z,9.35
2023-01-20T20:31:30.007Z,8.50
2023-01-20T20:34:01.301Z,8.50
2023-01-20T20:36:29.798Z,8.55
2023-01-20T20:38:58.793Z,8.50
2023-01-20T20:41:29.224Z,8.20
2023-01-20T20:43:57.490Z,8.30
2023-01-20T20:46:28.392Z,9.15
2023-01-20T20:48:56.633Z,8.50
2023-01-20T20:51:26.362Z,8.13
2023-01-20T20:53:58.182Z,8.15
2023-01-20T20:56:31.885Z,8.07
2023-01-20T20:59:02.486Z,7.57
2023-01-20T21:01:32.240Z,7.60
2023-01-20T21:04:00.631Z,8.25
2023-01-20T21:06:31.843Z,8.70
2023-01-20T21:09:02.066Z,8.05
2023-01-20T21:11:29.360Z,8.65
2023-01-20T21:13:56.302Z,8.35
2023-01-20T21:16:24.187Z,9.90
2023-01-20T21:18:55.087Z,9.18
2023-01-20T21:21:22.651Z,9.85
2023-01-20T21:23:52.761Z,9.27
2023-01-20T21:26:20.326Z,10.13
2023-01-20T21:28:49.386Z,9.80
2023-01-20T21:31:21.626Z,9.57
2023-01-20T21:33:53.638Z,10.48
2023-01-20T21:36:22.556Z,10.68
2023-01-20T21:38:49.873Z,10.48
2023-01-20T21:41:17.613Z,9.98
2023-01-20T21:44:04.463Z,11.75
2023-01-20T21:46:35.220Z,10.50
2023-01-20T21:49:22.361Z,11.07
2023-01-20T21:52:07.717Z,12.32
2023-01-20T21:54:34.840Z,11.55
2023-01-20T21:57:02.260Z,11.77
2023-01-20T21:59:29.024Z,11.63
2023-01-20T22:01:55.848Z,12.23
2023-01-20T22:04:22.887Z,10.73
2023-01-20T22:06:49.865Z,11.93
2023-01-20T22:09:16.703Z,11.63
2023-01-20T22:11:43.880Z,12.23
2023-01-20T22:14:11.026Z,12.07
2023-01-20T22:16:38.196Z,11.98
2023-01-20T22:19:05.074Z,12.18
2023-01-20T22:21:32.560Z,12.73
2023-01-20T22:23:59.399Z,13.30
2023-01-20T22:26:27.521Z,13.00
2023-01-20T22:28:54.426Z,12.23
2023-01-20T22:31:23.526Z,13.18
2023-01-20T22:33:54.517Z,14.18
2023-01-20T22:36:23.220Z,12.73
2023-01-20T22:38:52.947Z,12.05
2023-01-20T22:41:20.581Z,13.68
2023-01-20T22:43:48.249Z,13.13
2023-01-20T22:46:17.771Z,14.27
2023-01-20T22:48:45.534Z,13.73
2023-01-20T22:51:18.043Z,14.20
2023-01-20T22:53:45.241Z,15.00
2023-01-20T22:56:23.017Z,14.93
2023-01-20T22:58:50.268Z,14.63
2023-01-20T23:01:31.998Z,14.38
2023-01-20T23:04:05.333Z,14.07
2023-01-20T23:06:33.987Z,14.55
2023-01-20T23:09:03.091Z,13.82
2023-01-20T23:11:29.987Z,15.13
2023-01-20T23:13:56.776Z,14.85
2023-01-20T23:16:23.658Z,14.48
2023-01-20T23:18:51.168Z,14.25
2023-01-20T23:21:18.640Z,14.55
2023-01-20T23:23:45.882Z,14.93
2023-01-20T23:26:17.909Z,14.57
2023-01-20T23:28:45.783Z,14.13
2023-01-20T23:31:15.355Z,13.63
2023-01-20T23:33:43.688Z,13.75
2023-01-20T23:36:19.868Z,13.48
2023-01-20T23:38:46.973Z,13.48
2023-01-20T23:41:14.649Z,13.40
2023-01-20T23:43:41.737Z,14.70
2023-01-20T23:46:09.772Z,13.60
2023-01-20T23:48:37.114Z,13.50
2023-01-20T23:51:04.919Z,13.15
2023-01-20T23:53:33.764Z,13.02
2023-01-20T23:56:07.136Z,12.20
2023-01-20T23:58:34.259Z,12.75
